North Falmouth, Massachusetts
Current Conditions -  °F | °C
As of 5:15 AM on Saturday 22 Nov 2014 (Local Time) from KFMH Reporting Station
Clear Clear  
Wind Chill: -9°   Ceiling: Unl
Heat Index: -3°   Visibility: 10mi
Dew Point: -11°   Wind: 12mph
Humidity: 55%   Direction: 270°W
Pressure: 30.43"   Gusts: NA
Location:  41.64°N, 70.63°W
Report Text: KFMH 221015Z AUTO 27010KT 10SM CLR M03/M11 A3043 RMK AO2
Loading
Personal Weather Stations






























Interactive Weather Map New forecast layout! Learn more

10-Day Weather Forecast

Advertisements
Track Severe Weather on mobile